Time;durP1;ratioP1;P1;durP2;ratioP2;P2;SDS_P1;SDS_P2;PMS_P1;PMS_P2;Temp;Humidity;BMP_temperature;BMP_pressure;BME280_temperature;BME280_humidity;BME280_pressure;Samples;Min_cycle;Max_cycle;Signal;HPM_P1;HPM_P2
2022/01/20 00:28:11;;;;;;;25.25;5.15;;;6.40;83.20;;;;;;4974228;28;20774;-86
2022/01/20 00:38:15;;;;;;;20.35;3.92;;;6.40;83.50;;;;;;4995756;28;20575;-85
2022/01/20 00:40:40;;;;;;;25.90;3.75;;;6.30;83.50;;;;;;4991998;28;20576;-86
2022/01/20 00:43:06;;;;;;;15.20;3.03;;;6.40;83.40;;;;;;4977820;28;20274;-86
2022/01/20 00:45:32;;;;;;;16.90;3.50;;;6.50;83.50;;;;;;4984259;28;20195;-86
2022/01/20 00:47:58;;;;;;;13.43;2.40;;;6.50;83.20;;;;;;4983517;28;20179;-86
2022/01/20 00:50:24;;;;;;;12.37;3.10;;;6.50;83.00;;;;;;4984334;28;20183;-85
2022/01/20 00:52:50;;;;;;;9.07;2.33;;;6.50;82.80;;;;;;4988694;28;20183;-86
2022/01/20 00:55:16;;;;;;;15.20;3.20;;;6.30;82.60;;;;;;4993251;28;20203;-86
2022/01/20 00:57:42;;;;;;;31.80;5.40;;;6.30;82.60;;;;;;4997514;28;20258;-86
2022/01/20 01:00:10;;;;;;;21.30;3.37;;;6.40;82.60;;;;;;4962171;28;20188;-84
2022/01/20 01:02:35;;;;;;;14.48;3.65;;;6.30;82.60;;;;;;4963713;28;20178;-85
2022/01/20 01:05:04;;;;;;;26.23;4.30;;;6.30;82.60;;;;;;4958506;28;20180;-86
2022/01/20 01:10:08;;;;;;;14.43;2.78;;;6.40;82.70;;;;;;4995280;28;20191;-85
2022/01/20 01:12:57;;;;;;;20.27;3.80;;;6.60;82.70;;;;;;4977991;28;20176;-85
2022/01/20 01:15:40;;;;;;;11.90;2.53;;;6.50;82.30;;;;;;4985483;28;20199;-85
2022/01/20 01:23:41;;;;;;;11.60;1.85;;;6.50;81.50;;;;;;4994900;28;20175;-85
2022/01/20 01:26:16;;;;;;;8.63;1.80;;;6.50;81.40;;;;;;4977064;28;20559;-85
2022/01/20 01:28:43;;;;;;;4.72;2.13;;;6.60;81.20;;;;;;4976497;28;20167;-85
2022/01/20 01:33:41;;;;;;;6.95;2.05;;;6.50;80.60;;;;;;4986190;28;20520;-85
2022/01/20 01:36:08;;;;;;;5.28;1.70;;;6.50;80.60;;;;;;4976863;28;20565;-85
2022/01/20 01:38:38;;;;;;;15.40;2.28;;;6.40;80.50;;;;;;4980162;28;20294;-86
2022/01/20 01:41:15;;;;;;;11.48;1.85;;;6.40;80.70;;;;;;4991964;28;20659;-86
2022/01/20 01:43:44;;;;;;;12.18;2.70;;;6.40;80.70;;;;;;4993301;28;20178;-86
2022/01/20 01:46:12;;;;;;;4.72;1.50;;;6.40;80.70;;;;;;4980708;28;20192;-86
2022/01/20 01:48:42;;;;;;;7.38;2.90;;;6.60;80.80;;;;;;4990027;28;20258;-86
2022/01/20 01:51:09;;;;;;;9.23;2.47;;;6.60;80.70;;;;;;4992788;28;20183;-85
2022/01/20 01:53:37;;;;;;;9.60;2.03;;;6.60;80.50;;;;;;4972301;28;20175;-85
2022/01/20 01:56:04;;;;;;;7.25;1.70;;;6.50;80.40;;;;;;4976554;28;20226;-86
2022/01/20 01:58:30;;;;;;;11.32;1.92;;;6.60;80.40;;;;;;4980442;28;20206;-85
2022/01/20 02:00:56;;;;;;;4.95;1.60;;;6.60;80.50;;;;;;4978514;28;20245;-85
2022/01/20 02:03:24;;;;;;;10.05;2.20;;;6.60;80.60;;;;;;4964187;28;20212;-85
2022/01/20 02:08:37;;;;;;;8.35;2.22;;;6.80;80.70;;;;;;4975457;28;20191;-85
2022/01/20 02:19:17;;;;;;;13.13;1.90;;;6.70;80.60;;;;;;4961180;29;20745;-85
2022/01/20 02:21:49;;;;;;;6.50;2.13;;;6.70;80.90;;;;;;4960377;28;20211;-86
2022/01/20 02:24:15;;;;;;;15.60;1.98;;;6.60;81.10;;;;;;4970422;28;20186;-86
2022/01/20 02:26:40;;;;;;;7.93;2.10;;;6.60;81.20;;;;;;4969707;28;20223;-86
2022/01/20 02:29:06;;;;;;;9.30;2.07;;;6.70;81.50;;;;;;4991433;28;20243;-86
2022/01/20 02:31:32;;;;;;;7.80;1.90;;;6.80;81.50;;;;;;4962269;28;20194;-85
2022/01/20 02:33:58;;;;;;;5.93;1.70;;;6.90;81.60;;;;;;4964785;28;20427;-85
2022/01/20 02:36:24;;;;;;;14.00;2.60;;;6.90;81.70;;;;;;4964383;28;20543;-84
2022/01/20 02:38:58;;;;;;;4.82;1.88;;;6.90;81.80;;;;;;4972178;28;20206;-86
2022/01/20 02:46:53;;;;;;;7.28;2.42;;;6.90;81.70;;;;;;4978373;28;20636;-85
2022/01/20 02:49:19;;;;;;;7.22;1.45;;;6.60;82.60;;;;;;4966304;28;20175;-86
2022/01/20 02:51:53;;;;;;;2.22;1.00;;;6.10;83.50;;;;;;4979455;28;20198;-85
2022/01/20 02:54:38;;;;;;;3.80;0.95;;;5.80;84.40;;;;;;4983366;28;20229;-86
2022/01/20 02:57:05;;;;;;;4.45;1.52;;;5.60;85.70;;;;;;4980013;28;20209;-86
2022/01/20 02:59:34;;;;;;;3.15;1.50;;;5.50;86.50;;;;;;4978874;28;20195;-86
2022/01/20 03:02:00;;;;;;;2.58;1.30;;;5.60;87.00;;;;;;4977429;28;20238;-86
2022/01/20 03:04:27;;;;;;;6.45;2.00;;;5.50;87.40;;;;;;4962064;28;20239;-87
2022/01/20 03:06:53;;;;;;;13.30;2.58;;;5.60;87.50;;;;;;4973451;28;20199;-86
2022/01/20 03:09:19;;;;;;;7.18;2.35;;;5.60;87.50;;;;;;4980630;28;20179;-86
2022/01/20 03:11:45;;;;;;;7.13;2.10;;;5.70;87.70;;;;;;4987443;28;20168;-86
2022/01/20 03:14:11;;;;;;;5.47;1.63;;;5.70;87.50;;;;;;4966175;28;20526;-86
2022/01/20 03:16:37;;;;;;;8.13;1.80;;;5.70;87.30;;;;;;4978658;28;20219;-86
2022/01/20 03:19:03;;;;;;;7.50;1.90;;;5.70;87.30;;;;;;4970141;28;20242;-86
2022/01/20 03:21:28;;;;;;;8.30;2.77;;;5.80;87.40;;;;;;4977008;28;20427;-86
2022/01/20 03:23:54;;;;;;;5.63;1.63;;;5.80;87.40;;;;;;4982615;28;20188;-85
2022/01/20 03:26:20;;;;;;;5.83;2.00;;;5.80;87.40;;;;;;4972912;28;20223;-85
2022/01/20 03:28:45;;;;;;;11.13;1.90;;;5.80;87.40;;;;;;4968741;28;20202;-85
2022/01/20 03:31:11;;;;;;;10.80;1.90;;;5.90;87.30;;;;;;4978557;28;20191;-85
2022/01/20 03:33:37;;;;;;;8.10;1.70;;;5.80;87.00;;;;;;4985815;28;20183;-86
2022/01/20 03:36:02;;;;;;;6.23;1.70;;;5.90;87.00;;;;;;5006419;28;20199;-85
2022/01/20 03:38:28;;;;;;;9.20;2.30;;;5.80;86.60;;;;;;4989723;28;20207;-85
2022/01/20 03:40:54;;;;;;;8.13;2.07;;;5.80;86.50;;;;;;4987505;28;20449;-85
2022/01/20 03:43:20;;;;;;;11.23;2.97;;;5.80;86.50;;;;;;4988523;28;20234;-86
2022/01/20 03:45:50;;;;;;;6.03;1.40;;;5.80;86.40;;;;;;4995409;28;20442;-85
2022/01/20 03:48:16;;;;;;;6.30;1.45;;;5.80;86.40;;;;;;4984482;28;20190;-86
2022/01/20 03:51:00;;;;;;;4.85;1.38;;;5.70;86.40;;;;;;4973788;28;20176;-86
2022/01/20 03:53:36;;;;;;;9.25;1.60;;;5.70;86.50;;;;;;4991254;28;20179;-85
2022/01/20 03:56:03;;;;;;;6.32;1.67;;;5.60;86.60;;;;;;4944919;29;20208;-85
2022/01/20 03:58:29;;;;;;;10.00;1.85;;;5.70;86.90;;;;;;4941590;29;20629;-85
2022/01/20 04:00:54;;;;;;;9.23;1.63;;;5.70;87.10;;;;;;4943083;29;20181;-85
2022/01/20 04:03:21;;;;;;;3.67;1.40;;;5.70;87.10;;;;;;4975917;28;20179;-85
2022/01/20 04:05:56;;;;;;;4.20;2.05;;;5.70;87.20;;;;;;4979759;28;20585;-85
2022/01/20 04:08:27;;;;;;;8.70;1.70;;;5.80;87.30;;;;;;4980419;28;20540;-85
2022/01/20 04:10:53;;;;;;;5.90;1.73;;;5.70;87.30;;;;;;4985298;28;20184;-85
2022/01/20 04:13:19;;;;;;;8.00;2.10;;;5.80;87.40;;;;;;4962806;28;20175;-85
2022/01/20 04:15:48;;;;;;;14.25;2.15;;;5.80;87.40;;;;;;4979780;28;20206;-85
2022/01/20 04:18:20;;;;;;;8.95;2.28;;;5.80;87.40;;;;;;4979605;28;20206;-84
2022/01/20 04:20:46;;;;;;;13.00;3.17;;;5.90;87.50;;;;;;4979546;28;20302;-84
2022/01/20 04:23:12;;;;;;;18.13;3.10;;;6.00;87.60;;;;;;4984872;28;20192;-85
2022/01/20 04:25:37;;;;;;;8.23;2.60;;;6.00;87.50;;;;;;4970384;28;20474;-85
2022/01/20 04:28:03;;;;;;;7.10;1.70;;;5.70;87.40;;;;;;4976496;28;20718;-85
2022/01/20 04:30:29;;;;;;;9.35;2.10;;;5.50;87.10;;;;;;4958954;28;20279;-85
2022/01/20 04:32:55;;;;;;;9.00;2.30;;;5.40;87.30;;;;;;4958624;28;20298;-85
2022/01/20 04:35:22;;;;;;;18.23;3.30;;;5.30;87.00;;;;;;4979626;28;20489;-85
2022/01/20 04:37:48;;;;;;;5.97;2.70;;;5.40;87.20;;;;;;4988705;28;20216;-85
2022/01/20 04:40:15;;;;;;;13.25;2.45;;;5.40;87.60;;;;;;4963632;28;20184;-84
2022/01/20 04:42:44;;;;;;;20.40;5.35;;;5.40;87.80;;;;;;4958756;28;20255;-85
2022/01/20 04:45:13;;;;;;;20.58;3.55;;;5.60;87.90;;;;;;4957783;28;20199;-85
2022/01/20 04:58:23;;;;;;;4.63;2.03;;;5.50;85.40;;;;;;4975473;28;20650;-86
2022/01/20 05:00:48;;;;;;;23.53;3.90;;;5.60;85.50;;;;;;4958150;28;20648;-86
2022/01/20 05:03:14;;;;;;;19.60;3.37;;;5.50;85.10;;;;;;4978162;28;20251;-85
2022/01/20 05:05:40;;;;;;;14.17;3.03;;;5.40;83.70;;;;;;4982597;28;20207;-85
2022/01/20 05:08:06;;;;;;;14.83;2.60;;;5.40;83.20;;;;;;4966351;28;20423;-85
2022/01/20 05:10:34;;;;;;;18.83;2.30;;;5.40;83.70;;;;;;4965333;28;20266;-85
2022/01/20 05:13:06;;;;;;;17.65;3.20;;;5.40;84.40;;;;;;4958178;28;20431;-85
2022/01/20 05:15:33;;;;;;;13.98;2.40;;;5.40;85.10;;;;;;4966752;28;20234;-85
2022/01/20 05:17:59;;;;;;;9.82;1.85;;;5.40;85.40;;;;;;4959564;28;20599;-84
2022/01/20 05:20:25;;;;;;;17.13;2.88;;;5.40;85.10;;;;;;4969009;28;20188;-85
2022/01/20 05:22:51;;;;;;;11.30;2.03;;;5.40;85.10;;;;;;4977969;28;20211;-84
2022/01/20 05:25:17;;;;;;;11.03;2.30;;;5.50;85.20;;;;;;4978245;28;20438;-85
2022/01/20 05:27:42;;;;;;;5.73;2.40;;;5.60;85.80;;;;;;4978239;28;20202;-85
2022/01/20 05:30:09;;;;;;;12.73;4.87;;;5.30;86.30;;;;;;4993502;28;20423;-85
2022/01/20 05:32:35;;;;;;;12.15;2.97;;;5.20;87.30;;;;;;4959578;28;20664;-85
2022/01/20 05:35:00;;;;;;;9.25;2.40;;;5.10;88.00;;;;;;4959665;28;20257;-85
2022/01/20 05:37:26;;;;;;;9.83;1.90;;;5.20;88.50;;;;;;4971976;28;20211;-85
2022/01/20 05:39:52;;;;;;;5.40;2.27;;;5.10;88.50;;;;;;4962073;28;20203;-85
2022/01/20 05:42:18;;;;;;;4.93;2.23;;;5.10;88.70;;;;;;4963472;28;20176;-85
2022/01/20 05:44:45;;;;;;;12.73;2.70;;;5.10;88.80;;;;;;4991139;28;20204;-85
2022/01/20 05:47:18;;;;;;;8.85;3.40;;;5.10;88.90;;;;;;4968201;28;20207;-85
2022/01/20 05:49:44;;;;;;;7.80;3.33;;;5.10;88.90;;;;;;4974734;28;20191;-86
2022/01/20 05:52:10;;;;;;;13.97;3.10;;;5.10;89.00;;;;;;4968194;28;20187;-86
2022/01/20 05:54:36;;;;;;;6.37;2.20;;;5.20;88.80;;;;;;4956849;28;20270;-86
2022/01/20 05:57:02;;;;;;;9.15;1.38;;;5.10;88.40;;;;;;4956559;28;20203;-86
2022/01/20 05:59:27;;;;;;;3.93;1.33;;;5.00;88.10;;;;;;4957325;28;20314;-85
2022/01/20 06:01:58;;;;;;;9.57;2.37;;;5.00;88.40;;;;;;4957872;28;21050;-85
2022/01/20 06:04:24;;;;;;;3.78;1.85;;;5.00;88.80;;;;;;4976616;28;20258;-86
2022/01/20 06:06:50;;;;;;;11.60;2.27;;;5.10;89.10;;;;;;4960364;28;20282;-86
2022/01/20 06:09:15;;;;;;;11.20;2.17;;;5.10;88.80;;;;;;4978544;28;20233;-86
2022/01/20 06:11:42;;;;;;;6.23;2.23;;;5.10;89.00;;;;;;4968366;28;20190;-86
2022/01/20 06:14:08;;;;;;;4.03;1.85;;;5.20;88.90;;;;;;4969914;28;20431;-86
2022/01/20 06:16:35;;;;;;;5.47;1.50;;;5.20;88.80;;;;;;4962809;28;20825;-86
2022/01/20 06:19:01;;;;;;;11.55;1.90;;;5.10;88.60;;;;;;4986748;28;20473;-87
2022/01/20 06:21:47;;;;;;;4.23;1.73;;;5.30;88.60;;;;;;4968797;28;20188;-85
2022/01/20 06:24:13;;;;;;;21.05;2.70;;;5.30;88.40;;;;;;4957972;28;20168;-85
2022/01/20 06:26:39;;;;;;;9.27;2.33;;;5.20;88.10;;;;;;4958573;28;20227;-85
2022/01/20 06:29:05;;;;;;;9.33;2.23;;;5.00;87.80;;;;;;4977201;28;20188;-85
2022/01/20 06:31:30;;;;;;;10.87;2.10;;;5.10;87.90;;;;;;4980548;28;20233;-86
2022/01/20 06:33:56;;;;;;;8.43;1.93;;;5.10;88.00;;;;;;4999527;28;20197;-85
2022/01/20 06:36:21;;;;;;;15.80;1.73;;;5.00;88.00;;;;;;4972156;28;20246;-86
2022/01/20 06:38:47;;;;;;;8.93;2.23;;;5.00;87.80;;;;;;4966902;28;20215;-85
2022/01/20 06:41:13;;;;;;;18.97;2.47;;;4.90;87.60;;;;;;4967997;28;20192;-86
2022/01/20 06:43:38;;;;;;;10.80;2.50;;;5.00;87.50;;;;;;4969774;28;20180;-86
2022/01/20 06:46:04;;;;;;;8.20;2.47;;;5.10;87.60;;;;;;4964494;28;20207;-85
2022/01/20 06:48:30;;;;;;;10.20;2.20;;;5.00;87.20;;;;;;4967010;28;20184;-85
2022/01/20 06:50:55;;;;;;;12.40;4.07;;;5.20;87.30;;;;;;4980273;28;20190;-86
2022/01/20 06:53:21;;;;;;;13.00;2.83;;;5.20;87.10;;;;;;4985334;28;20636;-87
2022/01/20 06:55:47;;;;;;;11.10;2.37;;;5.10;86.90;;;;;;4961272;28;20227;-86
2022/01/20 06:58:13;;;;;;;17.23;3.10;;;5.10;86.90;;;;;;4961614;28;20549;-86
2022/01/20 07:00:38;;;;;;;13.73;2.77;;;5.10;86.70;;;;;;4958951;28;20227;-86
2022/01/20 07:03:04;;;;;;;8.17;2.47;;;5.10;86.60;;;;;;4974063;28;20503;-86
2022/01/20 07:05:30;;;;;;;6.60;2.30;;;5.00;85.40;;;;;;4971376;28;20202;-86
2022/01/20 07:07:56;;;;;;;12.10;2.80;;;5.00;85.30;;;;;;4978181;28;20279;-86
2022/01/20 07:10:22;;;;;;;14.53;2.70;;;5.00;85.20;;;;;;4982550;28;21132;-86
2022/01/20 07:12:48;;;;;;;9.82;3.25;;;5.00;85.10;;;;;;4984036;28;20414;-87
2022/01/20 07:15:16;;;;;;;24.38;3.72;;;5.00;85.20;;;;;;4979588;28;20226;-86
2022/01/20 07:17:42;;;;;;;10.07;2.80;;;5.10;85.00;;;;;;4979964;28;20195;-87
2022/01/20 07:20:08;;;;;;;14.75;2.50;;;5.20;84.80;;;;;;4971330;28;20844;-89
2022/01/20 07:22:34;;;;;;;13.38;3.25;;;5.20;84.80;;;;;;4966128;28;20180;-89
2022/01/20 07:25:00;;;;;;;16.33;3.60;;;5.30;84.70;;;;;;4960725;28;20687;-89
2022/01/20 07:27:28;;;;;;;10.83;2.70;;;5.20;84.10;;;;;;4976031;28;20222;-89
2022/01/20 07:29:53;;;;;;;14.10;2.78;;;5.20;83.50;;;;;;4980383;28;20427;-89
2022/01/20 07:32:19;;;;;;;15.53;4.27;;;5.30;83.60;;;;;;4980083;28;20190;-89
2022/01/20 07:34:45;;;;;;;5.73;2.17;;;5.30;83.80;;;;;;4981427;28;20933;-89
2022/01/20 07:37:11;;;;;;;10.10;3.23;;;5.30;83.70;;;;;;4990656;28;20446;-89
2022/01/20 07:39:36;;;;;;;16.03;3.90;;;5.30;83.40;;;;;;5001842;28;20418;-89
2022/01/20 07:42:02;;;;;;;18.73;3.87;;;5.10;82.60;;;;;;4981315;28;20230;-90
2022/01/20 07:44:28;;;;;;;18.45;2.83;;;5.00;82.20;;;;;;4978391;28;20179;-89
2022/01/20 07:46:54;;;;;;;7.55;2.63;;;5.10;81.90;;;;;;4973974;28;20296;-89
2022/01/20 07:49:20;;;;;;;18.90;2.63;;;5.20;81.70;;;;;;4991363;28;20207;-89
2022/01/20 07:51:45;;;;;;;16.40;3.90;;;5.20;80.50;;;;;;4964633;28;20327;-89
2022/01/20 07:54:11;;;;;;;19.53;4.00;;;5.20;80.30;;;;;;4959194;28;20666;-90
2022/01/20 07:56:37;;;;;;;13.50;2.63;;;5.20;79.10;;;;;;4960899;28;20268;-90
2022/01/20 07:59:03;;;;;;;15.20;2.60;;;5.20;79.60;;;;;;4959968;28;20211;-90
2022/01/20 08:01:29;;;;;;;12.13;3.17;;;5.30;79.80;;;;;;4976626;28;20183;-90
2022/01/20 08:03:55;;;;;;;12.23;2.95;;;5.40;79.50;;;;;;4978599;28;20179;-89
2022/01/20 08:06:22;;;;;;;6.18;3.25;;;5.20;78.10;;;;;;4979302;28;20250;-89
2022/01/20 08:08:50;;;;;;;7.65;2.00;;;5.20;78.10;;;;;;4980768;28;20270;-90
2022/01/20 08:11:21;;;;;;;14.80;2.97;;;5.30;78.10;;;;;;4995942;28;20205;-89
2022/01/20 08:13:46;;;;;;;20.92;2.83;;;5.10;77.60;;;;;;4991237;28;20184;-90
2022/01/20 08:16:12;;;;;;;12.23;4.60;;;5.10;78.00;;;;;;4981368;28;20206;-90
2022/01/20 08:18:38;;;;;;;18.37;2.87;;;5.20;78.50;;;;;;4985132;28;20242;-89
2022/01/20 08:21:04;;;;;;;13.23;2.80;;;5.30;78.40;;;;;;4988117;28;20498;-89
2022/01/20 08:23:30;;;;;;;17.23;2.40;;;5.40;78.40;;;;;;4992376;28;20190;-88
2022/01/20 08:25:55;;;;;;;14.60;2.70;;;5.40;77.80;;;;;;5019633;28;20426;-89
2022/01/20 08:28:22;;;;;;;6.27;2.60;;;5.40;77.10;;;;;;4995143;28;20434;-90
2022/01/20 08:30:49;;;;;;;15.90;1.90;;;5.50;77.00;;;;;;4966060;28;20861;-90
2022/01/20 08:33:15;;;;;;;14.52;2.75;;;5.40;76.00;;;;;;4959057;28;20180;-90
2022/01/20 08:35:40;;;;;;;9.00;2.20;;;5.40;75.60;;;;;;4959699;28;20211;-90
2022/01/20 08:38:07;;;;;;;10.17;3.47;;;5.30;74.90;;;;;;4959383;28;20490;-90
2022/01/20 08:40:34;;;;;;;7.93;3.30;;;5.20;74.40;;;;;;4958959;28;20412;-89
2022/01/20 08:43:00;;;;;;;5.50;1.95;;;5.30;74.70;;;;;;4960960;28;20636;-89
2022/01/20 08:45:29;;;;;;;20.70;3.50;;;5.40;74.50;;;;;;4961071;28;20210;-89
2022/01/20 08:47:57;;;;;;;11.48;2.60;;;5.40;74.40;;;;;;4960677;28;20507;-89
2022/01/20 08:50:25;;;;;;;10.60;2.45;;;5.40;73.80;;;;;;4971617;28;20242;-90
2022/01/20 08:52:51;;;;;;;25.30;2.80;;;5.50;74.10;;;;;;4979311;28;20179;-89
2022/01/20 08:55:17;;;;;;;6.30;3.10;;;5.40;73.70;;;;;;4981046;28;20262;-89
2022/01/20 08:57:44;;;;;;;17.00;3.10;;;5.40;73.00;;;;;;4966938;28;20199;-89
2022/01/20 09:00:11;;;;;;;14.80;2.53;;;5.70;73.40;;;;;;4978245;28;20634;-89
2022/01/20 09:02:37;;;;;;;13.98;2.67;;;5.90;73.00;;;;;;4978206;28;20186;-90
2022/01/20 09:05:05;;;;;;;8.03;2.17;;;5.80;73.60;;;;;;4961541;28;20574;-89
2022/01/20 09:07:31;;;;;;;14.70;3.03;;;5.80;74.20;;;;;;4967315;28;20218;-89
2022/01/20 09:09:59;;;;;;;6.18;2.08;;;5.70;74.80;;;;;;4959504;28;20198;-89
2022/01/20 09:15:28;;;;;;;5.50;1.40;;;5.60;74.90;;;;;;4977917;28;20170;-90
2022/01/20 09:18:00;;;;;;;8.35;1.55;;;5.70;74.80;;;;;;4962541;28;20203;-89
2022/01/20 09:20:27;;;;;;;7.78;2.08;;;5.60;74.70;;;;;;4972357;28;20251;-88
2022/01/20 09:22:54;;;;;;;8.18;2.45;;;5.70;74.80;;;;;;4964919;28;20214;-90
2022/01/20 09:25:21;;;;;;;10.07;1.75;;;5.70;74.80;;;;;;4977378;28;20299;-90
2022/01/20 09:27:47;;;;;;;10.15;2.42;;;5.80;75.10;;;;;;4979082;28;20200;-90
2022/01/20 09:30:18;;;;;;;8.57;3.35;;;5.70;74.40;;;;;;4984923;28;20609;-89
2022/01/20 09:32:56;;;;;;;4.97;2.10;;;5.80;74.10;;;;;;4983764;28;20678;-89
2022/01/20 09:35:23;;;;;;;4.40;2.05;;;6.00;74.30;;;;;;4980869;28;20694;-90
2022/01/20 09:37:48;;;;;;;8.07;2.30;;;6.10;73.30;;;;;;4975023;28;20723;-89
2022/01/20 09:40:16;;;;;;;10.27;2.07;;;5.90;73.00;;;;;;4977358;28;20275;-90
2022/01/20 09:42:41;;;;;;;23.05;3.13;;;5.90;72.80;;;;;;4966936;28;20659;-90
2022/01/20 09:45:07;;;;;;;10.47;2.50;;;5.80;73.00;;;;;;4962373;28;20208;-89
2022/01/20 09:47:35;;;;;;;14.43;2.30;;;5.70;73.20;;;;;;4962651;28;20187;-90
2022/01/20 09:50:08;;;;;;;8.15;2.20;;;5.60;73.50;;;;;;4961477;28;20237;-90
2022/01/20 09:52:33;;;;;;;7.55;1.88;;;5.70;73.90;;;;;;4959747;28;20330;-90
2022/01/20 09:54:59;;;;;;;13.17;2.27;;;5.80;73.80;;;;;;4954304;29;20192;-89
2022/01/20 09:57:25;;;;;;;7.63;2.83;;;5.80;74.00;;;;;;4955087;28;20186;-90
2022/01/20 09:59:52;;;;;;;7.40;2.13;;;6.10;74.20;;;;;;4972191;28;20227;-88
2022/01/20 10:02:19;;;;;;;13.30;2.30;;;5.70;76.00;;;;;;4965633;28;20239;-90
2022/01/20 10:04:45;;;;;;;6.28;1.80;;;5.30;77.10;;;;;;4979857;28;20216;-89
2022/01/20 10:07:13;;;;;;;12.80;1.77;;;5.20;78.70;;;;;;4959865;28;20207;-89
2022/01/20 10:09:49;;;;;;;5.30;1.80;;;5.10;79.20;;;;;;4959894;28;20415;-89
2022/01/20 10:12:17;;;;;;;1.95;1.73;;;5.10;79.10;;;;;;4996026;28;20674;-89
2022/01/20 10:14:48;;;;;;;8.73;2.45;;;5.30;79.30;;;;;;4981106;28;20187;-89
2022/01/20 10:17:22;;;;;;;11.60;2.42;;;5.10;77.80;;;;;;4995627;28;20193;-89
2022/01/20 10:19:56;;;;;;;6.25;2.00;;;5.20;77.70;;;;;;4985634;28;20189;-88
2022/01/20 10:22:24;;;;;;;7.00;2.90;;;5.10;76.80;;;;;;4981472;28;20262;-89
2022/01/20 10:24:57;;;;;;;7.03;2.35;;;5.00;77.00;;;;;;4980993;28;20176;-90
2022/01/20 10:27:23;;;;;;;11.65;2.15;;;5.00;77.00;;;;;;4979450;28;20222;-89
2022/01/20 10:30:01;;;;;;;7.30;1.60;;;5.00;77.10;;;;;;4964390;28;20180;-90
2022/01/20 10:32:38;;;;;;;6.43;2.17;;;5.10;77.10;;;;;;4965313;28;20768;-90
2022/01/20 10:35:05;;;;;;;8.07;2.42;;;5.20;76.60;;;;;;4960974;28;20282;-89
2022/01/20 10:37:31;;;;;;;4.30;2.28;;;5.20;76.00;;;;;;4959785;28;20298;-89
2022/01/20 10:40:06;;;;;;;6.03;1.53;;;5.20;75.10;;;;;;4957767;28;20184;-89
2022/01/20 10:42:37;;;;;;;4.03;1.73;;;5.30;75.20;;;;;;4959169;28;20927;-89
2022/01/20 10:45:03;;;;;;;7.00;2.65;;;5.30;74.90;;;;;;4978790;28;20176;-89
2022/01/20 10:47:31;;;;;;;12.30;2.75;;;5.50;74.80;;;;;;4961500;28;20244;-89
2022/01/20 10:50:12;;;;;;;5.30;2.10;;;5.70;73.50;;;;;;4961708;28;20188;-90
2022/01/20 10:52:44;;;;;;;9.27;1.63;;;5.80;73.00;;;;;;4961062;28;20640;-89
2022/01/20 10:55:24;;;;;;;7.82;2.13;;;5.90;72.40;;;;;;4947757;29;20201;-89
2022/01/20 10:57:51;;;;;;;7.60;1.75;;;6.00;71.90;;;;;;4941756;29;20200;-89
2022/01/20 11:00:20;;;;;;;15.20;2.15;;;6.10;71.90;;;;;;4942047;29;20185;-89
2022/01/20 11:02:58;;;;;;;11.48;2.33;;;6.10;71.10;;;;;;4952869;28;20179;-89
2022/01/20 11:05:25;;;;;;;6.20;1.65;;;6.10;70.60;;;;;;4960591;28;20204;-89
2022/01/20 11:07:52;;;;;;;8.80;1.70;;;6.10;70.30;;;;;;4961555;28;20215;-89
2022/01/20 11:10:19;;;;;;;7.38;2.95;;;6.10;69.80;;;;;;4961157;28;20207;-89
2022/01/20 11:12:45;;;;;;;4.05;2.42;;;6.20;70.50;;;;;;4961845;28;20192;-89
2022/01/20 11:15:15;;;;;;;11.82;2.33;;;6.00;71.70;;;;;;4981541;28;20291;-89
2022/01/20 11:17:43;;;;;;;16.10;2.20;;;5.90;72.40;;;;;;4962352;28;20227;-89
2022/01/20 11:20:15;;;;;;;6.18;1.80;;;6.00;72.70;;;;;;4967274;28;20247;-89
2022/01/20 11:22:59;;;;;;;8.50;2.72;;;6.10;73.10;;;;;;4969035;28;20187;-88
2022/01/20 11:25:28;;;;;;;8.05;2.28;;;6.30;73.40;;;;;;4974455;28;20211;-89
2022/01/20 11:28:21;;;;;;;11.73;2.88;;;6.20;72.60;;;;;;4993034;28;20226;-89
2022/01/20 11:31:00;;;;;;;7.45;1.70;;;6.20;72.60;;;;;;4982427;28;20172;-89
2022/01/20 11:33:37;;;;;;;9.27;2.50;;;6.10;72.10;;;;;;4959963;28;20168;-89
2022/01/20 11:36:05;;;;;;;9.68;1.95;;;6.00;72.20;;;;;;4972733;28;20207;-89
2022/01/20 11:38:47;;;;;;;12.18;2.95;;;6.20;72.50;;;;;;4942056;29;20200;-89
2022/01/20 11:41:14;;;;;;;10.13;2.25;;;6.00;72.10;;;;;;4965023;28;20216;-89
2022/01/20 11:43:45;;;;;;;6.28;2.38;;;6.30;72.40;;;;;;4980049;28;20276;-89
2022/01/20 11:46:25;;;;;;;11.05;2.65;;;6.40;72.10;;;;;;4961089;28;20204;-89
2022/01/20 11:48:56;;;;;;;8.85;1.88;;;6.40;72.30;;;;;;4969946;28;20175;-89
2022/01/20 11:51:41;;;;;;;5.82;1.75;;;6.30;72.30;;;;;;4961167;28;20211;-89
2022/01/20 11:54:08;;;;;;;12.45;2.65;;;6.20;72.10;;;;;;4961810;28;20727;-92
2022/01/20 11:56:39;;;;;;;9.63;2.03;;;6.40;72.60;;;;;;4972261;28;20214;-89
2022/01/20 11:59:08;;;;;;;7.50;2.40;;;6.40;72.80;;;;;;4962067;28;20227;-89
2022/01/20 12:01:48;;;;;;;10.52;2.22;;;6.30;72.80;;;;;;4960898;28;20184;-89
2022/01/20 12:04:15;;;;;;;9.68;2.38;;;6.20;73.90;;;;;;4964741;28;20186;-88
2022/01/20 12:06:44;;;;;;;7.75;1.95;;;6.20;74.00;;;;;;4971187;28;20203;-89
2022/01/20 12:09:11;;;;;;;7.47;2.15;;;6.30;74.50;;;;;;4981442;28;20176;-89
2022/01/20 12:11:40;;;;;;;10.15;2.17;;;6.50;74.90;;;;;;4970182;28;20191;-88
2022/01/20 12:14:07;;;;;;;8.82;2.22;;;6.40;74.80;;;;;;4964496;28;20182;-89
2022/01/20 12:16:33;;;;;;;9.85;2.17;;;6.40;74.50;;;;;;4978761;28;20215;-89
2022/01/20 12:19:01;;;;;;;9.23;2.63;;;6.40;75.10;;;;;;4978900;28;20195;-89
2022/01/20 12:21:30;;;;;;;19.88;2.42;;;6.50;74.70;;;;;;4978677;28;20859;-88
2022/01/20 12:24:04;;;;;;;8.43;2.03;;;6.50;73.50;;;;;;4995261;28;20209;-88
2022/01/20 12:26:39;;;;;;;8.52;1.88;;;6.40;73.20;;;;;;4980028;28;20218;-89
2022/01/20 12:29:08;;;;;;;10.13;2.22;;;6.40;72.60;;;;;;4978639;28;20236;-89
2022/01/20 12:31:49;;;;;;;15.90;4.22;;;6.40;72.90;;;;;;4978000;28;20241;-88
2022/01/20 12:34:16;;;;;;;12.30;2.63;;;6.70;72.10;;;;;;4978279;28;20182;-88
2022/01/20 12:36:58;;;;;;;20.92;2.83;;;6.80;71.80;;;;;;4971268;28;20432;-88
2022/01/20 12:39:30;;;;;;;20.02;2.63;;;7.00;70.40;;;;;;4979145;28;20195;-89
2022/01/20 12:42:07;;;;;;;28.77;2.92;;;6.90;70.10;;;;;;4981031;28;20180;-90
2022/01/20 12:45:55;;;;;;;14.43;2.38;;;7.00;69.90;;;;;;4982437;28;20167;-88
2022/01/20 12:47:50;;;;;;;11.57;2.53;;;6.90;68.50;;;;;;4957943;29;20186;-89
2022/01/20 12:50:16;;;;;;;10.00;1.90;;;6.80;68.40;;;;;;4940317;29;20239;-89
2022/01/20 12:52:49;;;;;;;5.93;2.10;;;6.80;69.10;;;;;;4940492;29;20179;-89
2022/01/20 12:55:17;;;;;;;4.25;2.00;;;6.70;69.60;;;;;;4972537;28;20539;-89
2022/01/20 12:57:43;;;;;;;10.48;2.50;;;6.60;69.10;;;;;;4960279;28;20653;-89
2022/01/20 13:00:10;;;;;;;13.13;1.90;;;6.70;69.10;;;;;;4958788;28;20272;-90
2022/01/20 13:02:35;;;;;;;13.43;2.95;;;6.90;68.70;;;;;;4958644;28;20176;-90
2022/01/20 13:05:04;;;;;;;10.07;2.07;;;6.90;68.90;;;;;;4958134;28;20180;-89
2022/01/20 13:07:33;;;;;;;6.68;2.13;;;6.90;68.00;;;;;;4958648;28;20211;-89
2022/01/20 13:10:08;;;;;;;7.45;1.63;;;6.90;66.90;;;;;;4963302;28;20187;-89
2022/01/20 13:12:39;;;;;;;10.25;2.17;;;6.60;66.00;;;;;;4966485;28;20198;-89
2022/01/20 13:15:26;;;;;;;15.35;2.45;;;6.60;66.80;;;;;;4970503;28;20230;-89
2022/01/20 13:18:13;;;;;;;7.88;1.95;;;6.70;67.20;;;;;;4979834;28;20224;-89
2022/01/20 13:20:41;;;;;;;8.40;2.50;;;6.80;66.50;;;;;;4978833;28;20179;-89
2022/01/20 13:23:54;;;;;;;5.78;1.90;;;6.50;66.20;;;;;;4978259;28;20221;-89
2022/01/20 13:26:08;;;;;;;8.25;2.10;;;6.40;66.70;;;;;;4996740;28;20285;-89
2022/01/20 13:28:34;;;;;;;10.90;2.50;;;6.40;66.90;;;;;;4997062;28;20170;-89
2022/01/20 13:31:14;;;;;;;6.97;2.25;;;6.40;67.30;;;;;;4979835;28;20183;-89
2022/01/20 13:33:40;;;;;;;9.10;2.22;;;6.80;67.40;;;;;;4997194;28;20481;-89
2022/01/20 13:36:05;;;;;;;8.90;1.73;;;6.70;66.90;;;;;;4980250;28;20318;-89
2022/01/20 13:38:40;;;;;;;15.00;2.90;;;6.60;67.00;;;;;;4981068;28;21015;-89
2022/01/20 13:41:09;;;;;;;5.38;2.00;;;6.70;66.40;;;;;;4981798;28;20213;-89
2022/01/20 13:46:42;;;;;;;8.95;2.10;;;6.70;64.70;;;;;;5009563;28;20198;-89
2022/01/20 13:49:13;;;;;;;6.50;1.23;;;6.60;63.00;;;;;;5006326;28;20218;-89
2022/01/20 13:51:39;;;;;;;4.10;1.95;;;6.70;63.30;;;;;;4974328;28;20188;-89
2022/01/20 13:54:05;;;;;;;7.90;2.83;;;6.70;63.80;;;;;;4985798;28;20184;-89
2022/01/20 13:56:31;;;;;;;3.03;1.20;;;6.90;63.50;;;;;;4988989;28;20199;-89
2022/01/20 13:59:08;;;;;;;7.32;1.85;;;6.80;62.30;;;;;;4985435;28;20226;-89
2022/01/20 14:01:34;;;;;;;6.65;2.28;;;6.60;62.80;;;;;;4999482;28;20183;-89
2022/01/20 14:04:01;;;;;;;6.70;1.77;;;6.60;62.30;;;;;;5001090;28;20226;-89
2022/01/20 14:06:27;;;;;;;5.43;1.88;;;6.50;62.30;;;;;;4978851;28;20469;-89
2022/01/20 14:08:54;;;;;;;9.38;1.80;;;6.50;62.60;;;;;;4978118;28;20183;-89
2022/01/20 14:11:21;;;;;;;8.95;2.10;;;6.50;63.60;;;;;;4996947;28;20176;-89
2022/01/20 14:13:47;;;;;;;8.88;1.30;;;6.60;64.20;;;;;;4983256;28;20179;-90
2022/01/20 14:16:14;;;;;;;10.88;1.58;;;6.50;64.10;;;;;;4999532;28;20299;-89
2022/01/20 14:18:45;;;;;;;11.48;1.90;;;6.40;64.40;;;;;;4983703;28;20290;-90